createdAt,value
2022-08-12T00:01:11.727Z,55.69
2022-08-12T00:03:57.245Z,55.61
2022-08-12T00:06:43.882Z,55.89
2022-08-12T00:09:29.721Z,56.32
2022-08-12T00:12:15.514Z,56.83
2022-08-12T00:15:04.052Z,56.98
2022-08-12T00:17:50.005Z,56.57
2022-08-12T00:20:35.377Z,57.26
2022-08-12T00:23:21.357Z,57.59
2022-08-12T00:26:21.402Z,57.83
2022-08-12T00:29:09.541Z,58.55
2022-08-12T00:31:55.345Z,59.25
2022-08-12T00:34:40.873Z,58.96
2022-08-12T00:37:27.758Z,58.74
2022-08-12T00:40:14.461Z,57.94
2022-08-12T00:42:42.586Z,57.66
2022-08-12T00:45:11.645Z,57.64
2022-08-12T00:47:39.619Z,57.62
2022-08-12T00:50:07.883Z,57.79
2022-08-12T00:52:36.150Z,57.49
2022-08-12T00:55:05.420Z,57.47
2022-08-12T00:57:37.396Z,57.67
2022-08-12T01:00:21.798Z,57.88
2022-08-12T01:02:57.512Z,58.66
2022-08-12T01:05:44.459Z,58.56
2022-08-12T01:08:30.286Z,58.27
2022-08-12T01:11:16.087Z,57.84
2022-08-12T01:13:50.496Z,57.96
2022-08-12T01:16:22.623Z,58.23
2022-08-12T01:18:55.081Z,57.76
2022-08-12T01:21:27.428Z,57.75
2022-08-12T01:24:52.119Z,57.71
2022-08-12T01:27:20.085Z,57.54
2022-08-12T01:29:49.310Z,57.52
2022-08-12T01:32:19.229Z,57.75
2022-08-12T01:35:12.423Z,58.37
2022-08-12T01:38:06.269Z,58.29
2022-08-12T01:40:40.427Z,58.02
2022-08-12T01:43:21.204Z,57.88
2022-08-12T01:46:07.773Z,58.05
2022-08-12T01:49:02.950Z,58.04
2022-08-12T01:52:15.994Z,57.61
2022-08-12T01:54:42.059Z,57.37
2022-08-12T01:57:10.897Z,57.66
2022-08-12T01:59:46.893Z,57.75
2022-08-12T02:02:36.871Z,57.49
2022-08-12T02:05:40.897Z,57.32
2022-08-12T02:09:01.644Z,57.54
2022-08-12T02:11:34.755Z,57.33
2022-08-12T02:14:37.329Z,57.21
2022-08-12T02:17:55.478Z,57.36
2022-08-12T02:20:51.919Z,57.32
2022-08-12T02:23:26.903Z,57.22
2022-08-12T02:25:59.572Z,57.03
2022-08-12T02:28:27.938Z,57.20
2022-08-12T02:30:57.281Z,57.94
2022-08-12T02:33:25.402Z,57.70
2022-08-12T02:35:52.933Z,57.55
2022-08-12T02:38:21.804Z,57.64
2022-08-12T02:40:54.863Z,58.00
2022-08-12T02:43:46.461Z,57.82
2022-08-12T02:46:16.290Z,57.35
2022-08-12T02:49:31.308Z,57.64
2022-08-12T02:52:00.249Z,57.10
2022-08-12T02:54:27.727Z,57.56
2022-08-12T02:56:55.352Z,57.50
2022-08-12T02:59:25.038Z,57.58
2022-08-12T03:01:55.131Z,57.46
2022-08-12T03:04:53.907Z,57.77
2022-08-12T03:07:55.752Z,58.33
2022-08-12T03:10:36.531Z,58.71
2022-08-12T03:13:07.286Z,58.63
2022-08-12T03:15:35.787Z,58.35
2022-08-12T03:18:26.418Z,59.13
2022-08-12T03:20:57.088Z,59.02
2022-08-12T03:23:30.143Z,58.86
2022-08-12T03:26:01.829Z,59.07
2022-08-12T03:28:51.245Z,59.77
2022-08-12T03:31:25.704Z,59.97
2022-08-12T03:34:02.198Z,59.60
2022-08-12T03:36:36.028Z,59.20
2022-08-12T03:39:16.559Z,59.10
2022-08-12T03:42:22.502Z,59.13
2022-08-12T03:45:42.069Z,59.31
2022-08-12T03:48:38.713Z,58.91
2022-08-12T03:51:24.959Z,58.65
2022-08-12T03:54:11.745Z,59.10
2022-08-12T03:56:58.758Z,58.67
2022-08-12T03:59:44.077Z,58.83
2022-08-12T04:02:15.517Z,58.73
2022-08-12T04:04:45.261Z,59.31
2022-08-12T04:07:14.052Z,59.31
2022-08-12T04:09:44.462Z,59.64
2022-08-12T04:12:32.881Z,59.05
2022-08-12T04:15:01.826Z,59.44
2022-08-12T04:17:29.123Z,59.34
2022-08-12T04:19:57.917Z,58.56
2022-08-12T04:22:29.674Z,58.75
2022-08-12T04:25:01.233Z,58.31
2022-08-12T04:27:31.478Z,58.05
2022-08-12T04:30:17.042Z,57.68
2022-08-12T04:32:49.943Z,57.94
2022-08-12T04:35:17.189Z,58.13
2022-08-12T04:37:58.486Z,58.52
2022-08-12T04:40:31.187Z,58.42
2022-08-12T04:43:01.233Z,58.59
2022-08-12T04:45:29.154Z,58.55
2022-08-12T04:47:56.822Z,58.23
2022-08-12T04:50:35.353Z,58.31
2022-08-12T04:53:08.974Z,58.13
2022-08-12T04:55:38.833Z,58.79
2022-08-12T04:58:10.093Z,59.00
2022-08-12T05:00:38.162Z,60.38
2022-08-12T05:03:07.422Z,60.32
2022-08-12T05:05:37.821Z,59.95
2022-08-12T05:08:11.287Z,60.16
2022-08-12T05:10:38.178Z,60.68
2022-08-12T05:13:09.521Z,60.48
2022-08-12T05:16:05.179Z,60.77
2022-08-12T05:18:25.750Z,60.79
2022-08-12T05:20:58.759Z,60.98
2022-08-12T05:23:25.658Z,60.57
2022-08-12T05:25:56.390Z,60.69
2022-08-12T05:28:26.848Z,60.77
2022-08-12T05:30:55.067Z,61.01
2022-08-12T05:33:26.469Z,60.49
2022-08-12T05:35:53.426Z,60.92
2022-08-12T05:38:39.326Z,60.68
2022-08-12T05:41:19.111Z,60.86
2022-08-12T05:43:48.371Z,60.82
2022-08-12T05:46:19.131Z,60.65
2022-08-12T05:48:46.570Z,60.74
2022-08-12T05:51:13.658Z,60.71
2022-08-12T05:53:41.602Z,60.73
2022-08-12T05:56:24.831Z,60.65
2022-08-12T05:58:53.606Z,60.25
2022-08-12T06:02:09.424Z,60.44
2022-08-12T06:04:09.461Z,59.66
2022-08-12T06:06:39.784Z,59.44
2022-08-12T06:09:09.998Z,59.21
2022-08-12T06:11:38.073Z,59.45
2022-08-12T06:14:11.682Z,59.24
2022-08-12T06:16:39.204Z,59.00
2022-08-12T06:19:08.137Z,58.50
2022-08-12T06:21:37.632Z,58.12
2022-08-12T06:24:06.109Z,57.09
2022-08-12T06:26:34.488Z,56.79
2022-08-12T06:29:01.608Z,55.54
2022-08-12T06:31:28.514Z,54.90
2022-08-12T06:34:00.895Z,54.79
2022-08-12T06:36:42.956Z,54.81
2022-08-12T06:39:14.836Z,55.13
2022-08-12T06:42:30.680Z,54.92
2022-08-12T06:44:50.339Z,54.19
2022-08-12T06:47:18.551Z,53.94
2022-08-12T06:49:45.460Z,53.45
2022-08-12T06:52:12.364Z,53.21
2022-08-12T06:54:41.359Z,52.69
2022-08-12T06:58:06.070Z,52.69
2022-08-12T06:59:55.781Z,52.51
2022-08-12T07:02:22.821Z,52.33
2022-08-12T07:04:50.024Z,52.27
2022-08-12T07:07:18.552Z,51.72
2022-08-12T07:10:06.982Z,51.57
2022-08-12T07:12:32.492Z,51.30
2022-08-12T07:15:01.708Z,51.45
2022-08-12T07:17:35.652Z,51.22
2022-08-12T07:20:11.653Z,50.91
2022-08-12T07:22:58.242Z,50.40
2022-08-12T07:25:37.457Z,50.34
2022-08-12T07:28:16.434Z,50.44
2022-08-12T07:30:45.834Z,50.11
2022-08-12T07:33:13.547Z,49.37
2022-08-12T07:35:45.433Z,49.87
2022-08-12T07:38:33.435Z,49.09
2022-08-12T07:41:15.424Z,49.32
2022-08-12T07:43:53.820Z,49.01
2022-08-12T07:46:28.958Z,49.79
2022-08-12T07:48:59.562Z,49.83
2022-08-12T07:51:27.540Z,49.88
2022-08-12T07:54:00.986Z,49.44
2022-08-12T07:56:31.613Z,49.34
2022-08-12T07:58:59.238Z,49.49
2022-08-12T08:01:26.994Z,49.37
2022-08-12T08:04:18.417Z,49.15
2022-08-12T08:06:46.802Z,48.55
2022-08-12T08:09:16.171Z,48.06
2022-08-12T08:12:01.675Z,48.02
2022-08-12T08:14:29.329Z,48.28
2022-08-12T08:16:59.783Z,47.11
2022-08-12T08:19:29.109Z,45.90
2022-08-12T08:21:58.705Z,44.15
2022-08-12T08:24:28.051Z,43.96
2022-08-12T08:26:58.404Z,44.13
2022-08-12T08:29:25.819Z,43.86
2022-08-12T08:31:58.652Z,43.44
2022-08-12T08:34:53.720Z,43.92
2022-08-12T08:37:20.692Z,43.22
2022-08-12T08:39:47.665Z,43.74
2022-08-12T08:42:33.134Z,43.34
2022-08-12T08:45:01.304Z,42.86
2022-08-12T08:47:28.226Z,42.29
2022-08-12T08:50:00.935Z,41.43
2022-08-12T08:52:39.374Z,40.15
2022-08-12T08:55:15.434Z,39.37
2022-08-12T08:57:49.405Z,39.96
2022-08-12T09:00:19.712Z,40.00
2022-08-12T09:02:49.329Z,39.55
2022-08-12T09:05:26.399Z,39.12
2022-08-12T09:08:08.771Z,37.13
2022-08-12T09:10:44.863Z,37.36
2022-08-12T09:13:29.418Z,36.81
2022-08-12T09:16:16.924Z,36.56
2022-08-12T09:18:48.324Z,34.17
2022-08-12T09:21:23.230Z,32.90
2022-08-12T09:24:01.255Z,33.79
2022-08-12T09:26:38.101Z,33.37
2022-08-12T09:29:15.313Z,33.91
2022-08-12T09:32:04.293Z,33.40
2022-08-12T09:34:33.845Z,33.77
2022-08-12T09:37:18.925Z,33.05
2022-08-12T09:40:04.171Z,32.72
2022-08-12T09:43:15.087Z,31.64
2022-08-12T09:46:11.004Z,32.18
2022-08-12T09:48:35.093Z,28.89
2022-08-12T09:51:16.765Z,29.18
2022-08-12T09:53:50.704Z,29.23
2022-08-12T09:56:59.368Z,29.97
2022-08-12T10:00:12.928Z,29.79
2022-08-12T10:02:44.740Z,28.18
2022-08-12T10:05:00.468Z,28.20
2022-08-12T10:07:40.620Z,28.34
2022-08-12T10:10:22.783Z,28.03
2022-08-12T10:13:13.586Z,27.44
2022-08-12T10:16:01.482Z,26.95
2022-08-12T10:18:32.720Z,27.25
2022-08-12T10:21:10.476Z,27.52
2022-08-12T10:23:40.780Z,27.57
2022-08-12T10:26:39.003Z,26.91
2022-08-12T10:30:38.360Z,26.53
2022-08-12T10:32:56.329Z,26.77
2022-08-12T10:35:09.369Z,25.94
2022-08-12T10:38:33.437Z,26.56
2022-08-12T10:40:28.589Z,24.96
2022-08-12T10:43:17.118Z,25.30
2022-08-12T10:45:46.056Z,25.19
2022-08-12T10:48:21.088Z,24.93
2022-08-12T10:51:01.778Z,25.17
2022-08-12T10:53:45.684Z,24.94
2022-08-12T10:56:17.909Z,24.84
2022-08-12T10:58:47.178Z,25.03
2022-08-12T11:01:49.912Z,24.53
2022-08-12T11:04:27.576Z,25.16
2022-08-12T11:07:09.655Z,25.29
2022-08-12T11:10:00.816Z,24.90
2022-08-12T11:12:54.740Z,24.61
2022-08-12T11:15:33.031Z,24.97
2022-08-12T11:18:12.029Z,24.68
2022-08-12T11:20:45.117Z,23.82
2022-08-12T11:23:25.049Z,24.21
2022-08-12T11:26:05.047Z,24.50
2022-08-12T11:28:37.110Z,24.20
2022-08-12T11:31:07.121Z,23.82
2022-08-12T11:34:05.858Z,24.15
2022-08-12T11:36:26.160Z,24.48
2022-08-12T11:38:54.505Z,24.08
2022-08-12T11:41:31.497Z,23.54
2022-08-12T11:44:30.778Z,24.07
2022-08-12T11:46:50.881Z,23.92
2022-08-12T11:49:20.495Z,23.93
2022-08-12T11:52:01.780Z,23.68
2022-08-12T11:54:29.873Z,23.68
2022-08-12T11:57:02.492Z,24.08
2022-08-12T12:02:20.431Z,24.19
2022-08-12T12:04:52.921Z,24.62
2022-08-12T12:08:36.683Z,24.60
2022-08-12T12:10:16.899Z,23.67
2022-08-12T12:12:50.157Z,23.91
2022-08-12T12:15:24.837Z,24.29
2022-08-12T12:17:55.780Z,23.45
2022-08-12T12:20:26.050Z,23.37
2022-08-12T12:22:54.750Z,23.31
2022-08-12T12:25:21.690Z,23.44
2022-08-12T12:28:08.579Z,23.57
2022-08-12T12:30:55.467Z,23.87
2022-08-12T12:33:22.410Z,23.66
2022-08-12T12:36:06.397Z,24.05
2022-08-12T12:38:36.270Z,23.75
2022-08-12T12:41:14.638Z,23.40
2022-08-12T12:43:56.571Z,23.46
2022-08-12T12:46:30.934Z,23.04
2022-08-12T12:48:57.847Z,23.04
2022-08-12T12:52:13.876Z,23.37
2022-08-12T12:54:12.520Z,22.56
2022-08-12T12:56:42.816Z,22.78
2022-08-12T12:59:55.474Z,22.26
2022-08-12T13:02:08.093Z,23.01
2022-08-12T13:04:37.357Z,22.77
2022-08-12T13:07:05.947Z,22.71
2022-08-12T13:09:36.412Z,23.45
2022-08-12T13:12:08.795Z,23.24
2022-08-12T13:14:39.928Z,22.59
2022-08-12T13:17:11.237Z,22.87
2022-08-12T13:19:45.341Z,22.88
2022-08-12T13:22:19.647Z,23.33
2022-08-12T13:24:55.994Z,23.26
2022-08-12T13:27:46.208Z,23.07
2022-08-12T13:30:23.779Z,23.95
2022-08-12T13:33:00.426Z,23.34
2022-08-12T13:36:05.931Z,23.02
2022-08-12T13:38:41.164Z,23.53
2022-08-12T13:41:31.281Z,22.37
2022-08-12T13:44:04.404Z,23.28
2022-08-12T13:46:31.930Z,22.47
2022-08-12T13:48:58.829Z,22.65
2022-08-12T13:51:26.063Z,22.07
2022-08-12T13:54:11.547Z,22.44
2022-08-12T13:56:38.999Z,22.73
2022-08-12T13:59:09.434Z,22.52
2022-08-12T14:01:40.679Z,22.05
2022-08-12T14:04:11.590Z,22.48
2022-08-12T14:06:40.440Z,22.18
2022-08-12T14:09:17.365Z,22.30
2022-08-12T14:11:59.163Z,22.52
2022-08-12T14:14:31.106Z,22.68
2022-08-12T14:17:02.342Z,22.10
2022-08-12T14:19:35.803Z,22.60
2022-08-12T14:22:06.713Z,22.51
2022-08-12T14:24:40.835Z,22.57
2022-08-12T14:27:10.134Z,22.52
2022-08-12T14:30:05.165Z,22.43
2022-08-12T14:32:34.251Z,22.10
2022-08-12T14:35:01.267Z,21.89
2022-08-12T14:37:55.538Z,22.24
2022-08-12T14:40:18.259Z,22.47
2022-08-12T14:42:46.966Z,23.00
2022-08-12T14:45:14.140Z,22.83
2022-08-12T14:47:53.589Z,22.97
2022-08-12T14:50:37.455Z,22.78
2022-08-12T14:54:55.959Z,22.96
2022-08-12T14:59:23.197Z,21.91
2022-08-12T15:01:51.102Z,22.49
2022-08-12T15:04:28.580Z,22.53
2022-08-12T15:06:56.407Z,22.65
2022-08-12T15:09:29.321Z,22.70
2022-08-12T15:12:03.193Z,22.46
2022-08-12T15:14:30.693Z,22.50
2022-08-12T15:17:00.037Z,22.97
2022-08-12T15:20:31.328Z,23.33
2022-08-12T15:22:39.458Z,23.06
2022-08-12T15:25:07.700Z,23.05
2022-08-12T15:28:04.482Z,23.17
2022-08-12T15:30:31.067Z,23.26
2022-08-12T15:32:59.044Z,23.16
2022-08-12T15:35:31.115Z,23.65
2022-08-12T15:38:11.416Z,23.57
2022-08-12T15:40:46.843Z,24.11
2022-08-12T15:43:51.381Z,23.48
2022-08-12T15:46:06.155Z,24.46
2022-08-12T15:48:33.347Z,23.77
2022-08-12T15:51:05.327Z,24.17
2022-08-12T15:53:54.667Z,24.13
2022-08-12T15:56:29.052Z,23.52
2022-08-12T15:58:58.934Z,23.64
2022-08-12T16:01:35.239Z,24.03
2022-08-12T16:04:05.369Z,24.43
2022-08-12T16:09:45.302Z,25.24
2022-08-12T16:12:11.210Z,25.00
2022-08-12T16:14:39.704Z,25.57
2022-08-12T16:17:09.126Z,25.34
2022-08-12T16:20:03.636Z,25.91
2022-08-12T16:22:29.810Z,26.01
2022-08-12T16:24:57.097Z,25.69
2022-08-12T16:27:25.447Z,26.75
2022-08-12T16:29:57.229Z,27.22
2022-08-12T16:32:31.660Z,27.55
2022-08-12T16:34:59.918Z,26.77
2022-08-12T16:37:32.487Z,27.05
2022-08-12T16:40:06.319Z,27.03
2022-08-12T16:42:39.454Z,27.15
2022-08-12T16:45:15.204Z,27.67
2022-08-12T16:47:58.533Z,27.49
2022-08-12T16:50:30.861Z,27.27
2022-08-12T16:53:02.481Z,27.60
2022-08-12T16:55:41.957Z,27.36
2022-08-12T16:58:28.044Z,27.72
2022-08-12T17:01:02.109Z,27.43
2022-08-12T17:03:32.587Z,27.41
2022-08-12T17:06:06.407Z,27.53
2022-08-12T17:08:33.877Z,27.68
2022-08-12T17:11:00.795Z,27.45
2022-08-12T17:13:29.154Z,27.83
2022-08-12T17:16:06.394Z,27.14
2022-08-12T17:18:45.500Z,27.47
2022-08-12T17:21:40.569Z,27.79
2022-08-12T17:24:16.403Z,27.10
2022-08-12T17:26:49.181Z,27.56
2022-08-12T17:29:24.027Z,27.54
2022-08-12T17:32:08.874Z,27.47
2022-08-12T17:34:55.161Z,28.24
2022-08-12T17:37:22.162Z,28.32
2022-08-12T17:40:12.667Z,28.49
2022-08-12T17:42:38.413Z,28.73
2022-08-12T17:45:17.030Z,28.39
2022-08-12T17:48:01.131Z,28.72
2022-08-12T17:50:36.853Z,29.16
2022-08-12T17:53:08.174Z,28.96
2022-08-12T17:55:47.417Z,29.57
2022-08-12T17:58:35.571Z,29.55
2022-08-12T18:01:11.024Z,29.98
2022-08-12T18:04:05.449Z,29.95
2022-08-12T18:06:27.856Z,30.21
2022-08-12T18:08:58.855Z,30.70
2022-08-12T18:12:04.383Z,30.77
2022-08-12T18:14:33.048Z,30.87
2022-08-12T18:17:08.183Z,31.19
2022-08-12T18:20:06.244Z,30.76
2022-08-12T18:22:31.760Z,31.05
2022-08-12T18:25:06.837Z,31.13
2022-08-12T18:28:15.721Z,31.29
2022-08-12T18:30:45.292Z,31.56
2022-08-12T18:33:23.766Z,31.90
2022-08-12T18:35:53.695Z,32.50
2022-08-12T18:38:25.119Z,32.28
2022-08-12T18:41:20.717Z,32.74
2022-08-12T18:43:59.852Z,33.14
2022-08-12T18:46:54.284Z,33.12
2022-08-12T18:49:38.042Z,33.49
2022-08-12T18:52:08.000Z,33.06
2022-08-12T18:54:49.323Z,33.32
2022-08-12T18:58:05.843Z,33.06
2022-08-12T19:00:21.526Z,33.64
2022-08-12T19:02:51.875Z,33.66
2022-08-12T19:05:20.768Z,33.75
2022-08-12T19:08:00.745Z,34.02
2022-08-12T19:10:31.114Z,33.75
2022-08-12T19:13:23.048Z,34.03
2022-08-12T19:15:57.935Z,33.86
2022-08-12T19:18:30.166Z,34.07
2022-08-12T19:21:06.537Z,33.87
2022-08-12T19:23:39.548Z,33.72
2022-08-12T19:26:12.198Z,33.93
2022-08-12T19:28:39.626Z,33.59
2022-08-12T19:31:56.063Z,34.25
2022-08-12T19:38:04.271Z,34.48
2022-08-12T19:40:32.293Z,34.17
2022-08-12T19:43:19.945Z,35.03
2022-08-12T19:45:54.315Z,34.73
2022-08-12T19:48:30.308Z,34.54
2022-08-12T19:50:57.887Z,35.07
2022-08-12T19:53:27.670Z,34.80
2022-08-12T19:55:57.417Z,34.93
2022-08-12T19:58:25.356Z,35.12
2022-08-12T20:00:54.964Z,34.82
2022-08-12T20:03:39.380Z,34.71
2022-08-12T20:06:15.631Z,35.23
2022-08-12T20:08:55.886Z,35.15
2022-08-12T20:12:14.724Z,35.64
2022-08-12T20:14:19.032Z,35.46
2022-08-12T20:16:54.466Z,35.09
2022-08-12T20:20:16.338Z,35.15
2022-08-12T20:22:24.531Z,35.89
2022-08-12T20:24:58.378Z,35.70
2022-08-12T20:28:03.317Z,35.65
2022-08-12T20:30:20.239Z,36.10
2022-08-12T20:32:58.623Z,35.74
2022-08-12T20:36:06.046Z,36.11
2022-08-12T20:38:26.198Z,36.38
2022-08-12T20:40:55.802Z,35.85
2022-08-12T20:43:24.336Z,36.35
2022-08-12T20:45:57.174Z,36.46
2022-08-12T20:48:26.210Z,36.05
2022-08-12T20:50:57.595Z,36.75
2022-08-12T20:53:26.549Z,36.51
2022-08-12T20:56:00.428Z,36.34
2022-08-12T20:58:28.508Z,36.96
2022-08-12T21:00:59.215Z,36.92
2022-08-12T21:03:52.719Z,36.52
2022-08-12T21:06:43.974Z,36.64
2022-08-12T21:09:10.955Z,36.82
2022-08-12T21:11:37.890Z,37.29
2022-08-12T21:14:05.994Z,37.60
2022-08-12T21:16:39.078Z,37.45
2022-08-12T21:19:08.176Z,37.23
2022-08-12T21:21:50.177Z,37.73
2022-08-12T21:24:17.793Z,37.85
2022-08-12T21:26:53.651Z,38.23
2022-08-12T21:29:21.906Z,37.54
2022-08-12T21:32:40.817Z,38.21
2022-08-12T21:34:36.505Z,38.38
2022-08-12T21:37:26.968Z,38.62
2022-08-12T21:39:56.402Z,38.34
2022-08-12T21:42:27.804Z,38.22
2022-08-12T21:45:48.078Z,38.29
2022-08-12T21:47:41.940Z,38.50
2022-08-12T21:50:09.227Z,38.87
2022-08-12T21:52:48.858Z,39.30
2022-08-12T21:55:17.991Z,38.60
2022-08-12T21:57:54.046Z,39.54
2022-08-12T22:00:33.369Z,39.48
2022-08-12T22:04:03.466Z,40.08
2022-08-12T22:06:31.048Z,39.60
2022-08-12T22:09:16.670Z,40.59
2022-08-12T22:11:56.253Z,40.91
2022-08-12T22:14:24.263Z,40.71
2022-08-12T22:16:54.294Z,41.23
2022-08-12T22:19:22.702Z,40.81
2022-08-12T22:21:54.937Z,40.89
2022-08-12T22:24:26.997Z,41.30
2022-08-12T22:27:31.596Z,41.21
2022-08-12T22:30:21.660Z,41.22
2022-08-12T22:32:50.556Z,41.03
2022-08-12T22:35:56.131Z,40.95
2022-08-12T22:38:25.443Z,41.13
2022-08-12T22:40:58.424Z,41.19
2022-08-12T22:43:59.258Z,41.25
2022-08-12T22:46:33.295Z,41.70
2022-08-12T22:49:01.090Z,41.88
2022-08-12T22:51:57.584Z,41.84
2022-08-12T22:54:36.203Z,42.22
2022-08-12T22:57:05.560Z,41.83
2022-08-12T22:59:51.273Z,42.23
2022-08-12T23:02:30.703Z,42.53
2022-08-12T23:04:58.392Z,42.30
2022-08-12T23:07:25.326Z,42.24
2022-08-12T23:09:52.432Z,42.72
2022-08-12T23:12:41.114Z,42.64
2022-08-12T23:15:14.434Z,42.43
2022-08-12T23:17:41.883Z,42.84
2022-08-12T23:20:11.311Z,42.53
2022-08-12T23:22:40.001Z,42.97
2022-08-12T23:25:19.061Z,43.24
2022-08-12T23:28:29.947Z,43.27
2022-08-12T23:31:04.073Z,42.99
2022-08-12T23:34:01.493Z,42.99
2022-08-12T23:36:39.058Z,43.79
2022-08-12T23:40:08.331Z,43.47
2022-08-12T23:42:16.452Z,43.67
2022-08-12T23:44:43.920Z,43.70
2022-08-12T23:47:12.622Z,43.74
2022-08-12T23:49:58.128Z,43.77
2022-08-12T23:52:27.682Z,43.71
2022-08-12T23:55:23.951Z,44.08
2022-08-12T23:58:17.839Z,43.99
